Time;durP1;ratioP1;P1;durP2;ratioP2;P2;SDS_P1;SDS_P2;PMS_P1;PMS_P2;Temp;Humidity;BMP_temperature;BMP_pressure;BME280_temperature;BME280_humidity;BME280_pressure;Samples;Min_cycle;Max_cycle;Signal;HPM_P1;HPM_P2
2020/03/21 00:01:11;;;;;;;43.3;26.4;;;;;;;10.86;75.12012;1007.27;;;;
2020/03/21 00:03:35;;;;;;;46.6;27.1;;;;;;;10.81;75.16797;1007.205;;;;
2020/03/21 00:06:00;;;;;;;43.2;26;;;;;;;10.92;74.79688;1007.333;;;;
2020/03/21 00:08:26;;;;;;;43.2;26.1;;;;;;;10.82;74.34473;1007.234;;;;
2020/03/21 00:11:10;;;;;;;39.7;24.8;;;;;;;10.64;74.8877;1007.215;;;;
2020/03/21 00:13:35;;;;;;;42.8;25.5;;;;;;;10.58;75.27539;1007.285;;;;
2020/03/21 00:16:01;;;;;;;41.8;25;;;;;;;10.58;74.93262;1007.375;;;;
2020/03/21 00:18:26;;;;;;;40.3;24.3;;;;;;;10.58;75.08301;1007.369;;;;
2020/03/21 00:20:51;;;;;;;39.1;23.8;;;;;;;10.47;75.16699;1007.407;;;;
2020/03/21 00:23:16;;;;;;;37.5;22.3;;;;;;;10.38;75.16113;1007.452;;;;
2020/03/21 00:25:41;;;;;;;36.2;22.5;;;;;;;10.34;74.96191;1007.419;;;;
2020/03/21 00:28:06;;;;;;;36.8;23.1;;;;;;;10.38;75.14941;1007.415;;;;
2020/03/21 00:30:31;;;;;;;35.9;22.4;;;;;;;10.27;75.24707;1007.41;;;;
2020/03/21 00:32:56;;;;;;;34.1;20.4;;;;;;;10.24;74.91992;1007.4;;;;
2020/03/21 00:35:21;;;;;;;35.6;21.8;;;;;;;10.16;75.1123;1007.467;;;;
2020/03/21 00:37:46;;;;;;;36.5;21.1;;;;;;;10.17;75.30859;1007.275;;;;
2020/03/21 00:40:11;;;;;;;35.8;21.1;;;;;;;10.13;75.31348;1007.341;;;;
2020/03/21 00:42:36;;;;;;;35.2;21.2;;;;;;;10.09;75.31836;1007.375;;;;
2020/03/21 00:45:02;;;;;;;33.7;20.1;;;;;;;10.08;75.06543;1007.358;;;;
2020/03/21 00:47:27;;;;;;;31.9;19.3;;;;;;;10.04;74.91992;1007.348;;;;
2020/03/21 00:49:52;;;;;;;29.6;18.8;;;;;;;10.1;74.80371;1007.401;;;;
2020/03/21 00:52:17;;;;;;;33.2;20.2;;;;;;;10.01;75.00684;1007.388;;;;
2020/03/21 00:54:42;;;;;;;30.8;19.1;;;;;;;9.97;74.95313;1007.305;;;;
2020/03/21 00:57:08;;;;;;;31.7;20.1;;;;;;;9.98;74.7627;1007.37;;;;
2020/03/21 00:59:33;;;;;;;29.3;18.7;;;;;;;9.94;74.43262;1007.343;;;;
2020/03/21 01:01:58;;;;;;;28.5;18.4;;;;;;;9.8;74.51367;1007.326;;;;
2020/03/21 01:04:23;;;;;;;30.8;18.6;;;;;;;9.8;74.77539;1007.378;;;;
2020/03/21 01:06:48;;;;;;;29.6;18.3;;;;;;;9.79;74.59082;1007.263;;;;
2020/03/21 01:09:13;;;;;;;27.9;17.4;;;;;;;9.79;74.41895;1007.196;;;;
2020/03/21 01:11:45;;;;;;;29.7;18;;;;;;;9.74;74.42188;1007.27;;;;
2020/03/21 01:14:11;;;;;;;28.6;17.4;;;;;;;9.62;73.86621;1007.327;;;;
2020/03/21 01:16:36;;;;;;;27;16.6;;;;;;;9.56;73.68262;1007.298;;;;
2020/03/21 01:19:01;;;;;;;27.4;17.4;;;;;;;9.46;73.49609;1007.298;;;;
2020/03/21 01:21:26;;;;;;;27.6;16.4;;;;;;;9.33;73.22168;1007.387;;;;
2020/03/21 01:23:51;;;;;;;27.2;17.7;;;;;;;9.35;73.48828;1007.198;;;;
2020/03/21 01:26:16;;;;;;;31.7;18.3;;;;;;;9.29;73.51172;1007.198;;;;
2020/03/21 01:28:51;;;;;;;29.6;18.1;;;;;;;9.27;73.54199;1007.127;;;;
2020/03/21 01:31:11;;;;;;;31;18;;;;;;;9.27;73.62207;1007.225;;;;
2020/03/21 01:33:57;;;;;;;29.1;17.7;;;;;;;9.29;73.27246;1007.189;;;;
2020/03/21 01:35:57;;;;;;;29.7;17.9;;;;;;;9.26;72.85645;1007.145;;;;
2020/03/21 01:38:21;;;;;;;30.4;18.6;;;;;;;9.2;72.73242;1007.191;;;;
2020/03/21 01:40:47;;;;;;;29.4;18.3;;;;;;;9.16;72.72559;1007.22;;;;
2020/03/21 01:43:12;;;;;;;31.5;18.7;;;;;;;9.17;72.89844;1007.174;;;;
2020/03/21 01:45:37;;;;;;;33.4;19.6;;;;;;;9.15;72.73438;1007.184;;;;
2020/03/21 01:48:02;;;;;;;33.1;19.4;;;;;;;9.07;72.58398;1007.281;;;;
2020/03/21 01:50:27;;;;;;;31.7;19;;;;;;;9.01;73.20215;1007.139;;;;
2020/03/21 01:52:52;;;;;;;30.5;19.5;;;;;;;9.1;72.71582;1007.276;;;;
2020/03/21 01:55:17;;;;;;;29.8;17.5;;;;;;;9.12;72.75293;1007.21;;;;
2020/03/21 01:57:42;;;;;;;30.7;18.8;;;;;;;9.08;72.72363;1007.21;;;;
2020/03/21 02:00:07;;;;;;;30.6;19.1;;;;;;;9.02;72.86133;1007.215;;;;
2020/03/21 02:02:32;;;;;;;32.4;18.3;;;;;;;9.01;72.93945;1007.215;;;;
2020/03/21 02:04:58;;;;;;;28.9;17.7;;;;;;;8.94;72.81348;1007.159;;;;
2020/03/21 02:07:23;;;;;;;27.5;18.2;;;;;;;9;72.6875;1007.074;;;;
2020/03/21 02:09:48;;;;;;;27;17.2;;;;;;;8.96;72.67969;1007.032;;;;
2020/03/21 02:12:13;;;;;;;27.9;17.4;;;;;;;8.97;72.55469;1007.122;;;;
2020/03/21 02:14:38;;;;;;;27.6;18.1;;;;;;;8.87;73.04102;1007.055;;;;
2020/03/21 02:17:03;;;;;;;29.6;17.6;;;;;;;8.91;73.02441;1007.035;;;;
2020/03/21 02:19:28;;;;;;;29.1;17.5;;;;;;;8.96;72.8623;1007.041;;;;
2020/03/21 02:21:53;;;;;;;28.6;17.8;;;;;;;9.03;72.69141;1007.038;;;;
2020/03/21 02:24:18;;;;;;;25.4;16.7;;;;;;;8.94;72.7334;1007.018;;;;
2020/03/21 02:26:44;;;;;;;25.4;16.6;;;;;;;8.93;72.70898;1007.137;;;;
2020/03/21 02:29:09;;;;;;;27.6;17.4;;;;;;;8.92;72.62793;1007.083;;;;
2020/03/21 02:31:34;;;;;;;25.6;17.1;;;;;;;8.96;72.64551;1007.089;;;;
2020/03/21 02:33:59;;;;;;;26;17.2;;;;;;;8.95;71.85547;1007.144;;;;
2020/03/21 02:36:24;;;;;;;28.2;17.7;;;;;;;8.81;71.2627;1007.176;;;;
2020/03/21 02:38:49;;;;;;;25.5;17;;;;;;;8.83;71.37988;1007.13;;;;
2020/03/21 02:41:14;;;;;;;27.7;17.2;;;;;;;8.73;71.64844;1007.129;;;;
2020/03/21 02:43:39;;;;;;;25.7;17.1;;;;;;;8.78;71.53223;1007.024;;;;
2020/03/21 02:46:05;;;;;;;25.6;16.9;;;;;;;8.78;71.12109;1007.091;;;;
2020/03/21 02:48:30;;;;;;;28.3;18.5;;;;;;;8.73;70.70215;1007.075;;;;
2020/03/21 02:50:55;;;;;;;27.2;17.1;;;;;;;8.76;70.33203;1007.164;;;;
2020/03/21 02:53:20;;;;;;;28.5;18.1;;;;;;;8.78;69.94727;1007.16;;;;
2020/03/21 02:55:45;;;;;;;28.3;16.9;;;;;;;8.73;68.77539;1007.205;;;;
2020/03/21 02:58:10;;;;;;;22.6;15.2;;;;;;;8.63;67.56348;1007.32;;;;
2020/03/21 03:00:35;;;;;;;25.1;16.8;;;;;;;8.63;67.36914;1007.319;;;;
2020/03/21 03:03:00;;;;;;;25.5;16.6;;;;;;;8.58;67.08691;1007.35;;;;
2020/03/21 03:05:25;;;;;;;24.2;15.7;;;;;;;8.62;67.06152;1007.387;;;;
2020/03/21 03:07:50;;;;;;;23.4;15.8;;;;;;;8.61;66.70703;1007.382;;;;
2020/03/21 03:10:15;;;;;;;23.5;15.8;;;;;;;8.58;66.72266;1007.214;;;;
2020/03/21 03:12:41;;;;;;;24.4;15.7;;;;;;;8.5;66.46094;1007.36;;;;
2020/03/21 03:15:06;;;;;;;23;15;;;;;;;8.46;66.06836;1007.374;;;;
2020/03/21 03:17:31;;;;;;;23;15.5;;;;;;;8.4;66.09277;1007.416;;;;
2020/03/21 03:19:56;;;;;;;24.2;16;;;;;;;8.41;65.68262;1007.405;;;;
2020/03/21 03:22:21;;;;;;;21.9;15.1;;;;;;;8.32;65.78418;1007.338;;;;
2020/03/21 03:24:46;;;;;;;24.4;15;;;;;;;8.26;65.74121;1007.365;;;;
2020/03/21 03:27:11;;;;;;;21.3;14.6;;;;;;;8.22;65.62109;1007.447;;;;
2020/03/21 03:29:36;;;;;;;24.4;15.2;;;;;;;8.19;65.66113;1007.35;;;;
2020/03/21 03:32:01;;;;;;;22;14.8;;;;;;;8.22;65.65332;1007.385;;;;
2020/03/21 03:34:26;;;;;;;20.2;14;;;;;;;8.23;65.43848;1007.347;;;;
2020/03/21 03:36:52;;;;;;;22.3;14.2;;;;;;;8.15;65.21094;1007.434;;;;
2020/03/21 03:39:17;;;;;;;22.5;14.4;;;;;;;8.14;65.6084;1007.512;;;;
2020/03/21 03:41:42;;;;;;;21.5;13.9;;;;;;;8.14;65.24414;1007.472;;;;
2020/03/21 03:44:08;;;;;;;18.2;13.3;;;;;;;8.07;65.50488;1007.381;;;;
2020/03/21 03:46:33;;;;;;;18.9;13;;;;;;;8.1;65.28223;1007.403;;;;
2020/03/21 03:48:58;;;;;;;20.5;13.3;;;;;;;8.01;65.50781;1007.408;;;;
2020/03/21 03:51:23;;;;;;;20.3;13.4;;;;;;;8;65.49512;1007.343;;;;
2020/03/21 03:53:48;;;;;;;21.1;13.3;;;;;;;7.96;65.5127;1007.374;;;;
2020/03/21 03:56:13;;;;;;;20.2;13;;;;;;;7.94;65.87305;1007.33;;;;
2020/03/21 03:58:39;;;;;;;20.6;13.2;;;;;;;8.04;65.5459;1007.249;;;;
2020/03/21 04:02:28;;;;;;;18.8;12.9;;;;;;;7.95;65.4668;1007.3;;;;
2020/03/21 04:04:53;;;;;;;19.3;12.9;;;;;;;8.01;65.63281;1007.302;;;;
2020/03/21 04:07:18;;;;;;;18.6;12.1;;;;;;;7.99;65.6416;1007.393;;;;
2020/03/21 04:09:43;;;;;;;17.8;11.7;;;;;;;7.96;65.68359;1007.468;;;;
2020/03/21 04:12:08;;;;;;;17.7;11.2;;;;;;;7.92;65.45996;1007.507;;;;
2020/03/21 04:14:33;;;;;;;18.9;11.6;;;;;;;7.91;65.77734;1007.4;;;;
2020/03/21 04:16:58;;;;;;;17.2;12;;;;;;;7.93;65.92969;1007.448;;;;
2020/03/21 04:19:23;;;;;;;15.7;11.2;;;;;;;7.92;65.76855;1007.491;;;;
2020/03/21 04:21:48;;;;;;;19.1;11.4;;;;;;;7.91;65.85742;1007.473;;;;
2020/03/21 04:24:22;;;;;;;18;11.8;;;;;;;7.87;65.99902;1007.445;;;;
2020/03/21 04:26:39;;;;;;;17.7;11.3;;;;;;;7.9;65.91211;1007.512;;;;
2020/03/21 04:29:05;;;;;;;17.6;11.5;;;;;;;7.87;66.0918;1007.523;;;;
2020/03/21 04:31:30;;;;;;;16.1;11.7;;;;;;;7.89;66.28711;1007.487;;;;
2020/03/21 04:33:55;;;;;;;17.4;11.7;;;;;;;7.92;65.96191;1007.526;;;;
2020/03/21 04:36:20;;;;;;;15.5;11.2;;;;;;;7.87;66.0791;1007.64;;;;
2020/03/21 04:38:45;;;;;;;15.7;11.1;;;;;;;7.83;66.25586;1007.536;;;;
2020/03/21 04:41:10;;;;;;;14.2;11;;;;;;;7.86;66.41895;1007.516;;;;
2020/03/21 04:43:35;;;;;;;17.9;11.9;;;;;;;7.81;66.70605;1007.52;;;;
2020/03/21 04:46:01;;;;;;;17.5;11.6;;;;;;;7.84;66.75781;1007.463;;;;
2020/03/21 04:48:27;;;;;;;15.9;11.7;;;;;;;7.78;67.08887;1007.449;;;;
2020/03/21 04:50:52;;;;;;;17.6;12;;;;;;;7.76;67.47266;1007.556;;;;
2020/03/21 04:53:17;;;;;;;17.5;11.8;;;;;;;7.7;67.78125;1007.602;;;;
2020/03/21 04:55:42;;;;;;;20.6;12.3;;;;;;;7.76;67.79102;1007.597;;;;
2020/03/21 04:58:08;;;;;;;17.1;12.3;;;;;;;7.79;67.73828;1007.587;;;;
2020/03/21 05:00:33;;;;;;;17.6;11.8;;;;;;;7.85;67.65723;1007.613;;;;
2020/03/21 05:02:58;;;;;;;16.9;12.3;;;;;;;7.86;67.74902;1007.579;;;;
2020/03/21 05:05:23;;;;;;;18.5;13;;;;;;;7.81;67.83301;1007.589;;;;
2020/03/21 05:07:48;;;;;;;18.4;13.1;;;;;;;7.73;68.24023;1007.63;;;;
2020/03/21 05:10:13;;;;;;;19.7;13.2;;;;;;;7.73;68.66309;1007.615;;;;
2020/03/21 05:12:38;;;;;;;21.2;13.2;;;;;;;7.63;69.19141;1007.662;;;;
2020/03/21 05:15:03;;;;;;;18.5;13.3;;;;;;;7.6;69.95996;1007.702;;;;
2020/03/21 05:17:29;;;;;;;16.8;12.8;;;;;;;7.59;70.53906;1007.614;;;;
2020/03/21 05:19:54;;;;;;;21.3;14.2;;;;;;;7.55;71.20215;1007.606;;;;
2020/03/21 05:22:19;;;;;;;21.4;14.2;;;;;;;7.45;72.01563;1007.595;;;;
2020/03/21 05:24:44;;;;;;;20.1;12.9;;;;;;;7.33;72.85938;1007.804;;;;
2020/03/21 05:27:09;;;;;;;19.7;14;;;;;;;7.31;74.44531;1007.659;;;;
2020/03/21 05:29:35;;;;;;;21.3;14.9;;;;;;;7.23;75.15039;1007.623;;;;
2020/03/21 05:32:00;;;;;;;21.9;15.2;;;;;;;7.17;76.79785;1007.589;;;;
2020/03/21 05:34:25;;;;;;;22.5;15.8;;;;;;;7.08;78.47168;1007.578;;;;
2020/03/21 05:36:50;;;;;;;21.9;16.2;;;;;;;6.89;79.62793;1007.569;;;;
2020/03/21 05:39:15;;;;;;;22.7;16.2;;;;;;;6.76;81.7373;1007.562;;;;
2020/03/21 05:41:40;;;;;;;22.3;16.7;;;;;;;6.75;81.52148;1007.581;;;;
2020/03/21 05:44:05;;;;;;;23.1;17.5;;;;;;;6.71;82.37598;1007.546;;;;
2020/03/21 05:46:30;;;;;;;24.5;16.4;;;;;;;6.62;83.2793;1007.609;;;;
2020/03/21 05:48:55;;;;;;;24.6;16.6;;;;;;;6.61;83.87695;1007.663;;;;
2020/03/21 05:51:20;;;;;;;22;15.9;;;;;;;6.56;83.37988;1007.698;;;;
2020/03/21 05:53:45;;;;;;;22.4;16.3;;;;;;;6.53;84.5752;1007.712;;;;
2020/03/21 05:56:10;;;;;;;21.9;15.7;;;;;;;6.42;83.93066;1007.68;;;;
2020/03/21 05:58:35;;;;;;;20.4;14.9;;;;;;;6.43;83.75098;1007.719;;;;
2020/03/21 06:01:01;;;;;;;22.2;16.1;;;;;;;6.44;84.50293;1007.796;;;;
2020/03/21 06:03:26;;;;;;;21.8;16.3;;;;;;;6.41;85.61621;1007.757;;;;
2020/03/21 06:06:27;;;;;;;21.7;15.4;;;;;;;6.4;85.03613;1007.789;;;;
2020/03/21 06:08:16;;;;;;;21.3;15.6;;;;;;;6.33;86.08984;1007.81;;;;
2020/03/21 06:11:26;;;;;;;21.2;16.1;;;;;;;6.35;86.5791;1007.776;;;;
2020/03/21 06:13:06;;;;;;;22.8;16;;;;;;;6.33;86.56348;1007.84;;;;
2020/03/21 06:15:31;;;;;;;22.1;16;;;;;;;6.29;86.49023;1007.858;;;;
2020/03/21 06:17:56;;;;;;;21.8;16.1;;;;;;;6.32;87.94629;1007.846;;;;
2020/03/21 06:20:22;;;;;;;25.5;17.3;;;;;;;6.3;88.2041;1007.881;;;;
2020/03/21 06:22:47;;;;;;;22;15.8;;;;;;;6.34;88.51758;1007.871;;;;
2020/03/21 06:25:12;;;;;;;24.6;18.2;;;;;;;6.31;89.22559;1007.844;;;;
2020/03/21 06:27:38;;;;;;;26.6;18.5;;;;;;;6.31;90.11035;1007.868;;;;
2020/03/21 06:30:03;;;;;;;26.8;18.3;;;;;;;6.24;90.43457;1007.907;;;;
2020/03/21 06:32:28;;;;;;;27.4;19.4;;;;;;;6.21;91.39258;1007.959;;;;
2020/03/21 06:34:53;;;;;;;30.4;20.8;;;;;;;6.21;91.63086;1007.907;;;;
2020/03/21 06:37:18;;;;;;;28.2;18.9;;;;;;;6.2;91.7627;1007.94;;;;
2020/03/21 06:39:44;;;;;;;29.5;19.5;;;;;;;6.28;92.05371;1007.929;;;;
2020/03/21 06:42:09;;;;;;;29.3;19.8;;;;;;;6.24;92.06738;1007.937;;;;
2020/03/21 06:44:34;;;;;;;28.4;18.8;;;;;;;6.21;91.93652;1007.916;;;;
2020/03/21 06:47:00;;;;;;;28.1;19.4;;;;;;;6.23;91.5;1007.96;;;;
2020/03/21 06:49:25;;;;;;;27.3;19.2;;;;;;;6.2;92.36523;1007.924;;;;
2020/03/21 06:51:50;;;;;;;29.6;20.4;;;;;;;6.18;93.16406;1007.936;;;;
2020/03/21 06:54:15;;;;;;;33.5;21.4;;;;;;;6.11;92.70801;1007.906;;;;
2020/03/21 06:56:40;;;;;;;29.9;20.5;;;;;;;6.05;92.98926;1007.923;;;;
2020/03/21 06:59:05;;;;;;;30.1;20.7;;;;;;;6.04;92.88379;1007.938;;;;
2020/03/21 07:01:30;;;;;;;28.8;20.2;;;;;;;6.07;93.45801;1007.902;;;;
2020/03/21 07:03:56;;;;;;;30.1;21;;;;;;;6.07;92.72363;1007.974;;;;
2020/03/21 07:06:21;;;;;;;27.1;19.4;;;;;;;6.02;91.44238;1007.93;;;;
2020/03/21 07:08:46;;;;;;;27.6;19.5;;;;;;;6;91.41602;1007.929;;;;
2020/03/21 07:11:12;;;;;;;27.7;19.3;;;;;;;5.98;91.72754;1007.916;;;;
2020/03/21 07:13:38;;;;;;;27.4;19.6;;;;;;;6.04;92.12402;1007.824;;;;
2020/03/21 07:16:03;;;;;;;26.1;18.6;;;;;;;5.96;91.85938;1007.863;;;;
2020/03/21 07:18:28;;;;;;;23.9;17.5;;;;;;;5.88;91.69531;1007.765;;;;
2020/03/21 07:20:53;;;;;;;25.7;18.3;;;;;;;5.87;91.94434;1007.699;;;;
2020/03/21 07:23:18;;;;;;;25.9;17.2;;;;;;;5.84;91.16699;1007.752;;;;
2020/03/21 07:25:44;;;;;;;25.9;18.3;;;;;;;5.78;92.47754;1007.73;;;;
2020/03/21 07:28:09;;;;;;;27.8;19.3;;;;;;;5.75;93.61523;1007.752;;;;
2020/03/21 07:30:34;;;;;;;31.2;20.5;;;;;;;5.78;93.83691;1007.788;;;;
2020/03/21 07:32:59;;;;;;;28.4;19.7;;;;;;;5.79;94.34766;1007.83;;;;
2020/03/21 07:35:25;;;;;;;24.7;17.2;;;;;;;5.7;92.83398;1007.865;;;;
2020/03/21 07:37:50;;;;;;;21.6;14.8;;;;;;;5.62;92.6582;1007.9;;;;
2020/03/21 07:40:15;;;;;;;20.9;14.8;;;;;;;5.54;92.04199;1007.877;;;;
2020/03/21 07:42:40;;;;;;;19.2;13.9;;;;;;;5.54;92.6084;1007.866;;;;
2020/03/21 07:45:05;;;;;;;18;12.6;;;;;;;5.5;91.88574;1007.911;;;;
2020/03/21 07:47:30;;;;;;;16.8;11.4;;;;;;;5.44;91.44238;1007.951;;;;
2020/03/21 07:49:56;;;;;;;12.1;9.4;;;;;;;5.36;90.8252;1008.086;;;;
2020/03/21 07:52:22;;;;;;;11.1;8.2;;;;;;;5.27;90.13867;1008.05;;;;
2020/03/21 07:54:47;;;;;;;11.9;9.2;;;;;;;5.21;91.40527;1008.074;;;;
2020/03/21 07:57:12;;;;;;;10.6;8.1;;;;;;;5.2;91.2334;1008.119;;;;
2020/03/21 07:59:37;;;;;;;13.5;10.4;;;;;;;5.26;92.71582;1008.084;;;;
2020/03/21 08:02:02;;;;;;;11.1;8.5;;;;;;;5.2;91.2998;1008.064;;;;
2020/03/21 08:04:27;;;;;;;11.9;8.9;;;;;;;5.21;92.14063;1008.036;;;;
2020/03/21 08:06:52;;;;;;;11.7;8.7;;;;;;;5.19;91.96484;1008.11;;;;
2020/03/21 08:09:18;;;;;;;10.8;7.7;;;;;;;5.16;91.07715;1008.113;;;;
2020/03/21 08:11:43;;;;;;;10;7.8;;;;;;;5.09;91.73047;1008.106;;;;
2020/03/21 08:14:08;;;;;;;10.4;8.1;;;;;;;5.14;92.30371;1008.16;;;;
2020/03/21 08:16:34;;;;;;;9.1;7.5;;;;;;;5.12;92.2334;1008.154;;;;
2020/03/21 08:18:59;;;;;;;10.8;7.8;;;;;;;5.19;92.43945;1008.179;;;;
2020/03/21 08:21:24;;;;;;;8.7;7.1;;;;;;;5.19;92.26074;1008.137;;;;
2020/03/21 08:23:49;;;;;;;9.7;7.4;;;;;;;5.18;91.72559;1008.188;;;;
2020/03/21 08:26:14;;;;;;;9.5;7.4;;;;;;;5.24;91.97656;1008.206;;;;
2020/03/21 08:28:39;;;;;;;9.5;7.4;;;;;;;5.25;91.58105;1008.268;;;;
2020/03/21 08:31:05;;;;;;;8.6;7.4;;;;;;;5.24;91.89746;1008.208;;;;
2020/03/21 08:33:30;;;;;;;10.2;7.5;;;;;;;5.29;92.3252;1008.264;;;;
2020/03/21 08:35:55;;;;;;;9.9;7.6;;;;;;;5.32;92.36719;1008.252;;;;
2020/03/21 08:38:21;;;;;;;11.2;7.7;;;;;;;5.36;92.58984;1008.2;;;;
2020/03/21 08:40:46;;;;;;;10.7;7.7;;;;;;;5.36;91.87695;1008.292;;;;
2020/03/21 08:43:11;;;;;;;10.1;7.5;;;;;;;5.37;92.41113;1008.254;;;;
2020/03/21 08:45:36;;;;;;;8.9;7.3;;;;;;;5.4;92.57715;1008.256;;;;
2020/03/21 08:48:02;;;;;;;10;7.7;;;;;;;5.42;92.52441;1008.303;;;;
2020/03/21 08:50:27;;;;;;;9.5;7.3;;;;;;;5.42;91.80078;1008.367;;;;
2020/03/21 08:52:52;;;;;;;7.9;6.4;;;;;;;5.33;90.37891;1008.386;;;;
2020/03/21 08:55:18;;;;;;;7.7;6.4;;;;;;;5.35;91.57031;1008.54;;;;
2020/03/21 08:57:43;;;;;;;7.6;6.2;;;;;;;5.39;91.27441;1008.485;;;;
2020/03/21 09:00:08;;;;;;;8.9;6.6;;;;;;;5.34;92.39355;1008.42;;;;
2020/03/21 09:02:33;;;;;;;7.8;6.3;;;;;;;5.4;91.29883;1008.447;;;;
2020/03/21 09:04:58;;;;;;;8.5;6.4;;;;;;;5.32;91.14355;1008.438;;;;
2020/03/21 09:07:24;;;;;;;7;5.6;;;;;;;5.29;89.64551;1008.438;;;;
2020/03/21 09:09:49;;;;;;;7.3;5.7;;;;;;;5.25;90.77832;1008.45;;;;
2020/03/21 09:12:14;;;;;;;8.5;6.3;;;;;;;5.28;91.26074;1008.539;;;;
2020/03/21 09:14:39;;;;;;;7.5;5.7;;;;;;;5.31;92.14844;1008.449;;;;
2020/03/21 09:17:04;;;;;;;8.3;6.5;;;;;;;5.35;91.62695;1008.449;;;;
2020/03/21 09:19:29;;;;;;;7;5.9;;;;;;;5.37;90.84961;1008.414;;;;
2020/03/21 09:21:55;;;;;;;8;6;;;;;;;5.38;91.22656;1008.482;;;;
2020/03/21 09:24:19;;;;;;;7.1;5.7;;;;;;;5.42;90.98535;1008.515;;;;
2020/03/21 09:26:45;;;;;;;7.5;5.9;;;;;;;5.36;90.86133;1008.525;;;;
2020/03/21 09:29:15;;;;;;;8;6.1;;;;;;;5.47;91.80078;1008.514;;;;
2020/03/21 09:31:42;;;;;;;7.8;6.3;;;;;;;5.56;92.48535;1008.531;;;;
2020/03/21 09:34:15;;;;;;;7.7;6;;;;;;;5.51;91.61621;1008.632;;;;
2020/03/21 09:36:26;;;;;;;7.7;6.4;;;;;;;5.56;92.50879;1008.632;;;;
2020/03/21 09:38:50;;;;;;;8.7;6.5;;;;;;;5.57;92.16113;1008.72;;;;
2020/03/21 09:41:15;;;;;;;8.6;6.9;;;;;;;5.62;93.64258;1008.632;;;;
2020/03/21 09:43:40;;;;;;;8.5;7.1;;;;;;;5.64;94.28027;1008.696;;;;
2020/03/21 09:46:05;;;;;;;9.9;7;;;;;;;5.54;94.26953;1008.793;;;;
2020/03/21 09:48:30;;;;;;;9.3;6.7;;;;;;;5.55;94.70117;1008.781;;;;
2020/03/21 09:50:55;;;;;;;7.9;6.6;;;;;;;5.5;93.76172;1008.838;;;;
2020/03/21 09:53:21;;;;;;;8.7;6.2;;;;;;;5.54;93.7959;1008.773;;;;
2020/03/21 09:55:46;;;;;;;8.4;6.1;;;;;;;5.52;94.19824;1008.723;;;;
2020/03/21 09:58:16;;;;;;;7.6;5.8;;;;;;;5.49;93.85059;1008.664;;;;
2020/03/21 10:00:36;;;;;;;7.5;5.2;;;;;;;5.4;93.52734;1008.681;;;;
2020/03/21 10:03:01;;;;;;;6.8;5;;;;;;;5.23;92.30273;1008.734;;;;
2020/03/21 10:05:26;;;;;;;7.2;5.2;;;;;;;5.23;93.20703;1008.669;;;;
2020/03/21 10:07:52;;;;;;;7.6;5.4;;;;;;;5.17;94.01855;1008.836;;;;
2020/03/21 10:10:17;;;;;;;6.7;5.4;;;;;;;5.17;94.02051;1008.833;;;;
2020/03/21 10:12:42;;;;;;;6.9;5.1;;;;;;;5.19;93.98828;1008.577;;;;
2020/03/21 10:15:07;;;;;;;7;5;;;;;;;5.17;94.62891;1008.99;;;;
2020/03/21 10:17:32;;;;;;;6.7;4.7;;;;;;;5.09;92.9043;1008.668;;;;
2020/03/21 10:19:57;;;;;;;5.6;4.3;;;;;;;5.03;91.86426;1008.802;;;;
2020/03/21 10:22:22;;;;;;;7;4.6;;;;;;;4.98;92.7002;1008.751;;;;
2020/03/21 10:24:47;;;;;;;6.7;4.8;;;;;;;5;94.10742;1008.7;;;;
2020/03/21 10:27:12;;;;;;;8.7;5;;;;;;;5;95.62207;1008.673;;;;
2020/03/21 10:29:38;;;;;;;8;5.7;;;;;;;5.11;96.23145;1008.634;;;;
2020/03/21 10:32:03;;;;;;;7.4;5.4;;;;;;;5.15;95.46191;1008.443;;;;
2020/03/21 10:34:28;;;;;;;8;5.4;;;;;;;5.13;95.80566;1008.445;;;;
2020/03/21 10:36:53;;;;;;;6.9;5;;;;;;;5;93.91504;1008.53;;;;
2020/03/21 10:39:19;;;;;;;6.3;4.6;;;;;;;4.95;94.41211;1008.49;;;;
2020/03/21 10:41:44;;;;;;;6.5;4.8;;;;;;;4.95;94.4209;1008.583;;;;
2020/03/21 10:44:09;;;;;;;5.9;4.3;;;;;;;4.88;93.93262;1008.545;;;;
2020/03/21 10:46:34;;;;;;;7.4;5.1;;;;;;;4.84;94.87207;1008.651;;;;
2020/03/21 10:48:59;;;;;;;5.6;4.4;;;;;;;4.82;94.47461;1008.594;;;;
2020/03/21 10:51:24;;;;;;;5.4;4.4;;;;;;;4.84;94.00391;1008.642;;;;
2020/03/21 10:53:50;;;;;;;5.8;4.5;;;;;;;4.8;94.11816;1008.676;;;;
2020/03/21 10:56:15;;;;;;;6.6;4.2;;;;;;;4.8;93.34961;1008.79;;;;
2020/03/21 10:58:40;;;;;;;6.7;4.4;;;;;;;4.79;94.24023;1008.641;;;;
2020/03/21 11:01:05;;;;;;;6.2;4.2;;;;;;;4.78;93.58301;1008.665;;;;
2020/03/21 11:03:30;;;;;;;5.7;4;;;;;;;4.77;93.54688;1008.68;;;;
2020/03/21 11:05:55;;;;;;;5.5;4.2;;;;;;;4.81;94.00684;1008.701;;;;
2020/03/21 11:08:20;;;;;;;4.8;3.8;;;;;;;4.75;93.67871;1008.577;;;;
2020/03/21 11:10:45;;;;;;;4.8;3.5;;;;;;;4.73;93.58301;1008.685;;;;
2020/03/21 11:13:11;;;;;;;5;3.8;;;;;;;4.7;93.76855;1008.534;;;;
2020/03/21 11:15:37;;;;;;;5.4;3.7;;;;;;;4.69;94.66797;1008.586;;;;
2020/03/21 11:18:02;;;;;;;6.1;4.1;;;;;;;4.68;94.74707;1008.564;;;;
2020/03/21 11:20:27;;;;;;;5.2;3.7;;;;;;;4.74;95.50488;1008.616;;;;
2020/03/21 11:22:52;;;;;;;5.7;4.4;;;;;;;4.72;94.75684;1008.654;;;;
2020/03/21 11:25:17;;;;;;;6.3;4.2;;;;;;;4.73;94.92871;1008.685;;;;
2020/03/21 11:27:42;;;;;;;5.4;4.1;;;;;;;4.75;95.41797;1008.639;;;;
2020/03/21 11:30:07;;;;;;;5.3;4;;;;;;;4.77;95.11719;1008.557;;;;
2020/03/21 11:32:32;;;;;;;5.5;4.1;;;;;;;4.79;94.43262;1008.632;;;;
2020/03/21 11:34:58;;;;;;;5;3.8;;;;;;;4.77;94.28125;1008.637;;;;
2020/03/21 11:37:23;;;;;;;5;4;;;;;;;4.83;94.97168;1008.677;;;;
2020/03/21 11:39:48;;;;;;;5.2;3.8;;;;;;;4.83;94.44043;1008.652;;;;
2020/03/21 11:42:13;;;;;;;4.6;3.8;;;;;;;4.84;93.50488;1008.757;;;;
2020/03/21 11:44:38;;;;;;;5.6;4.1;;;;;;;4.86;94.01855;1008.646;;;;
2020/03/21 11:47:03;;;;;;;5.2;4.1;;;;;;;4.87;94.3584;1008.618;;;;
2020/03/21 11:49:28;;;;;;;5.9;3.9;;;;;;;4.89;93.77441;1008.652;;;;
2020/03/21 11:51:53;;;;;;;6.1;4.3;;;;;;;4.89;93.44629;1008.646;;;;
2020/03/21 11:54:19;;;;;;;5.2;3.7;;;;;;;4.88;93.15332;1008.766;;;;
2020/03/21 11:56:44;;;;;;;4.7;3.7;;;;;;;4.86;92.77441;1008.675;;;;
2020/03/21 11:59:09;;;;;;;4.8;3.8;;;;;;;4.86;92.84375;1008.743;;;;
2020/03/21 12:01:34;;;;;;;5;3.4;;;;;;;4.78;92.06738;1008.614;;;;
2020/03/21 12:04:05;;;;;;;4.9;4;;;;;;;4.83;94.27246;1008.602;;;;
2020/03/21 12:06:24;;;;;;;5;3.7;;;;;;;4.83;92.74609;1008.593;;;;
2020/03/21 12:08:50;;;;;;;6;4;;;;;;;4.86;93.51953;1008.702;;;;
2020/03/21 12:11:14;;;;;;;4.9;3.9;;;;;;;4.8;93.72266;1008.569;;;;
2020/03/21 12:13:39;;;;;;;6.4;3.9;;;;;;;4.72;93.09668;1008.552;;;;
2020/03/21 12:16:04;;;;;;;6.6;4.5;;;;;;;4.76;93.4873;1008.519;;;;
2020/03/21 12:18:29;;;;;;;5.8;4;;;;;;;4.73;93.80859;1008.564;;;;
2020/03/21 12:20:54;;;;;;;5.6;4.3;;;;;;;4.78;94.43066;1008.537;;;;
2020/03/21 12:23:19;;;;;;;6.3;4.5;;;;;;;4.72;100;1008.462;;;;
2020/03/21 12:25:44;;;;;;;5.5;4.1;;;;;;;4.83;100;1008.474;;;;
2020/03/21 12:28:10;;;;;;;5.6;3.6;;;;;;;4.77;99.89551;1008.567;;;;
2020/03/21 12:30:35;;;;;;;5.6;3.8;;;;;;;4.8;94.21973;1008.563;;;;
2020/03/21 12:33:00;;;;;;;6.4;3.8;;;;;;;4.77;93.44336;1008.464;;;;
2020/03/21 12:35:25;;;;;;;6.6;4.4;;;;;;;4.87;94.16602;1008.438;;;;
2020/03/21 12:37:50;;;;;;;5.9;4.2;;;;;;;4.92;94.53027;1008.521;;;;
2020/03/21 12:40:15;;;;;;;5.5;4;;;;;;;4.91;93.52051;1008.438;;;;
2020/03/21 12:42:40;;;;;;;5.4;3.8;;;;;;;4.89;93.17773;1008.462;;;;
2020/03/21 12:45:05;;;;;;;5.7;4.1;;;;;;;4.91;93.08008;1008.458;;;;
2020/03/21 12:47:30;;;;;;;4.9;3.8;;;;;;;4.87;92.24512;1008.559;;;;
2020/03/21 12:49:55;;;;;;;6.1;4.4;;;;;;;4.91;93.75781;1008.422;;;;
2020/03/21 12:52:21;;;;;;;6.1;4.5;;;;;;;4.96;93.38379;1008.339;;;;
2020/03/21 12:54:46;;;;;;;6.5;4.4;;;;;;;5.07;93.71387;1008.303;;;;
2020/03/21 12:57:11;;;;;;;6.4;4.4;;;;;;;5.02;93.36523;1008.339;;;;
2020/03/21 12:59:36;;;;;;;5.8;4.3;;;;;;;5.09;93.17578;1008.38;;;;
2020/03/21 13:02:01;;;;;;;6.1;4.4;;;;;;;5.16;93.59863;1008.328;;;;
2020/03/21 13:04:26;;;;;;;6.1;4.4;;;;;;;5.29;92.72168;1008.358;;;;
2020/03/21 13:06:51;;;;;;;6.1;4.4;;;;;;;5.3;93.01758;1008.29;;;;
2020/03/21 13:09:16;;;;;;;5;3.9;;;;;;;5.21;92.45703;1008.396;;;;
2020/03/21 13:11:42;;;;;;;6.8;4.2;;;;;;;5.23;92.23438;1008.408;;;;
2020/03/21 13:14:07;;;;;;;5.5;4.3;;;;;;;5.32;93.37402;1008.355;;;;
2020/03/21 13:16:32;;;;;;;6.1;4.4;;;;;;;5.44;92.92578;1008.361;;;;
2020/03/21 13:18:57;;;;;;;5.6;4.2;;;;;;;5.47;93.00879;1008.374;;;;
2020/03/21 13:21:22;;;;;;;7;4.4;;;;;;;5.63;93.27051;1008.379;;;;
2020/03/21 13:23:47;;;;;;;6.5;4.7;;;;;;;5.62;92.06934;1008.344;;;;
2020/03/21 13:26:12;;;;;;;6.7;4.5;;;;;;;5.68;93.17871;1008.33;;;;
2020/03/21 13:28:37;;;;;;;5.6;4.5;;;;;;;5.73;92.02637;1008.338;;;;
2020/03/21 13:31:02;;;;;;;6;4.5;;;;;;;5.67;91.44727;1008.241;;;;
2020/03/21 13:33:27;;;;;;;5.8;4.4;;;;;;;5.66;90.73242;1008.395;;;;
2020/03/21 13:35:52;;;;;;;6.6;4.8;;;;;;;5.57;91.52734;1008.377;;;;
2020/03/21 13:38:18;;;;;;;5.6;4.7;;;;;;;5.6;92.12207;1008.382;;;;
2020/03/21 13:40:43;;;;;;;6.2;4.7;;;;;;;5.53;92.09473;1008.373;;;;
2020/03/21 13:43:08;;;;;;;6.4;4.7;;;;;;;5.59;93.24023;1008.305;;;;
2020/03/21 13:45:33;;;;;;;7.2;5.1;;;;;;;5.6;92.75586;1008.326;;;;
2020/03/21 13:47:58;;;;;;;6.9;4.7;;;;;;;5.65;92.57324;1008.389;;;;
2020/03/21 13:50:23;;;;;;;7.3;5;;;;;;;5.59;92.90137;1008.31;;;;
2020/03/21 13:52:48;;;;;;;7.6;5.3;;;;;;;5.65;93.5127;1008.368;;;;
2020/03/21 13:55:13;;;;;;;6.2;4.9;;;;;;;5.66;92.2373;1008.336;;;;
2020/03/21 13:57:38;;;;;;;6.5;5;;;;;;;5.73;92.37598;1008.342;;;;
2020/03/21 14:00:03;;;;;;;6.9;4.8;;;;;;;5.72;92.63379;1008.35;;;;
2020/03/21 14:02:28;;;;;;;6.9;5.2;;;;;;;5.73;92.64941;1008.365;;;;
2020/03/21 14:04:53;;;;;;;7.7;5.3;;;;;;;5.73;93.30371;1008.407;;;;
2020/03/21 14:07:18;;;;;;;7.9;5.5;;;;;;;5.78;93.13477;1008.374;;;;
2020/03/21 14:09:44;;;;;;;8.6;5.9;;;;;;;5.81;93.59277;1008.364;;;;
2020/03/21 14:12:09;;;;;;;8.2;5.9;;;;;;;5.87;94.14844;1008.407;;;;